Time;durP1;ratioP1;P1;durP2;ratioP2;P2;SDS_P1;SDS_P2;PMS_P1;PMS_P2;Temp;Humidity;BMP_temperature;BMP_pressure;BME280_temperature;BME280_humidity;BME280_pressure;Samples;Min_cycle;Max_cycle;Signal;HPM_P1;HPM_P2
2023/04/18 00:01:30;;;;;;;11.23;10.07;;;;;;;8.82;100.00;96565.78;5032825;27;102267;-66
2023/04/18 00:03:58;;;;;;;10.80;9.80;;;;;;;8.81;100.00;96561.53;5028243;28;101912;-67
2023/04/18 00:06:25;;;;;;;9.70;8.70;;;;;;;8.79;100.00;96563.63;5029224;28;105077;-66
2023/04/18 00:08:52;;;;;;;10.60;9.57;;;;;;;8.79;100.00;96560.97;5030050;28;102593;-66
2023/04/18 00:11:19;;;;;;;10.13;9.20;;;;;;;8.70;100.00;96559.72;5028606;27;102320;-66
2023/04/18 00:13:49;;;;;;;10.17;9.10;;;;;;;8.60;100.00;96560.31;5029083;28;105179;-67
2023/04/18 00:16:16;;;;;;;11.00;9.90;;;;;;;8.65;100.00;96549.00;5028302;28;105244;-66
2023/04/18 00:18:43;;;;;;;12.03;10.90;;;;;;;8.71;100.00;96550.72;5030558;27;101988;-66
2023/04/18 00:21:10;;;;;;;11.33;10.23;;;;;;;8.70;100.00;96554.41;5011462;28;104930;-66
2023/04/18 00:23:38;;;;;;;10.23;9.23;;;;;;;8.76;100.00;96562.25;5030185;28;105287;-66
2023/04/18 00:26:05;;;;;;;10.53;9.63;;;;;;;8.78;100.00;96560.16;5030409;28;102897;-66
2023/04/18 00:28:32;;;;;;;10.73;9.70;;;;;;;8.82;100.00;96563.97;5029513;27;103012;-66
2023/04/18 00:31:01;;;;;;;10.90;9.90;;;;;;;8.82;100.00;96563.13;5028864;28;101889;-66
2023/04/18 00:33:29;;;;;;;10.70;9.70;;;;;;;8.81;100.00;96556.22;5030334;27;102287;-66
2023/04/18 00:35:56;;;;;;;10.90;9.90;;;;;;;8.80;100.00;96558.09;5028313;28;105527;-66
2023/04/18 00:38:23;;;;;;;11.83;10.73;;;;;;;8.80;100.00;96549.31;5028586;28;101928;-66
2023/04/18 00:40:50;;;;;;;11.00;10.00;;;;;;;8.80;100.00;96551.97;5029236;27;102302;-66
2023/04/18 00:43:17;;;;;;;10.47;9.47;;;;;;;8.82;100.00;96553.34;5027369;28;105315;-66
2023/04/18 00:45:44;;;;;;;11.77;10.67;;;;;;;8.85;100.00;96550.25;5032305;28;102091;-66
2023/04/18 00:48:13;;;;;;;11.50;10.27;;;;;;;8.81;100.00;96546.44;5027155;28;105285;-66
2023/04/18 00:50:40;;;;;;;11.83;10.63;;;;;;;8.77;100.00;96539.22;5027480;28;101852;-66
2023/04/18 00:53:09;;;;;;;11.27;10.17;;;;;;;8.71;100.00;96540.13;5028870;28;102382;-67
2023/04/18 00:55:38;;;;;;;12.57;11.33;;;;;;;8.71;100.00;96540.13;5026979;28;105411;-66
2023/04/18 00:58:05;;;;;;;13.23;11.93;;;;;;;8.70;100.00;96544.63;5027311;28;101872;-66
2023/04/18 01:00:32;;;;;;;11.67;10.57;;;;;;;8.69;100.00;96544.84;5027615;28;105272;-66
2023/04/18 01:02:59;;;;;;;11.27;10.27;;;;;;;8.72;100.00;96547.06;5027020;28;105093;-67
2023/04/18 01:05:28;;;;;;;10.60;9.60;;;;;;;8.69;100.00;96550.97;5030908;28;101827;-66
2023/04/18 01:07:59;;;;;;;11.43;10.33;;;;;;;8.69;100.00;96552.81;5027786;28;105949;-66
2023/04/18 01:10:27;;;;;;;9.90;9.00;;;;;;;8.68;100.00;96553.84;5027498;28;102100;-66
2023/04/18 01:13:12;;;;;;;9.67;8.77;;;;;;;8.70;100.00;96549.13;5028552;28;104791;-66
2023/04/18 01:15:41;;;;;;;11.03;10.03;;;;;;;8.60;100.00;96543.59;5027866;28;103723;-66
2023/04/18 01:18:08;;;;;;;10.57;9.47;;;;;;;8.61;100.00;96543.38;5027294;28;101781;-66
2023/04/18 01:20:41;;;;;;;11.83;10.73;;;;;;;8.61;100.00;96545.25;5028445;28;105462;-66
2023/04/18 01:23:09;;;;;;;11.60;10.40;;;;;;;8.59;100.00;96542.81;5027618;27;105345;-66
2023/04/18 01:25:38;;;;;;;12.40;11.27;;;;;;;8.58;100.00;96548.34;5030767;28;102482;-66
2023/04/18 01:28:05;;;;;;;11.27;10.27;;;;;;;8.63;100.00;96543.97;5035097;27;102540;-66
2023/04/18 01:30:33;;;;;;;10.97;9.97;;;;;;;8.67;100.00;96549.59;5030726;28;101962;-66
2023/04/18 01:33:00;;;;;;;10.37;9.47;;;;;;;8.66;100.00;96542.66;5032047;27;102369;-66
2023/04/18 01:35:28;;;;;;;11.20;9.57;;;;;;;8.61;100.00;96539.94;5030768;28;105487;-67
2023/04/18 01:37:57;;;;;;;10.90;9.90;;;;;;;8.52;100.00;96541.31;5031437;28;102070;-66
2023/04/18 01:40:25;;;;;;;9.83;8.93;;;;;;;8.53;100.00;96535.81;5031473;28;105166;-66
2023/04/18 01:42:55;;;;;;;9.87;8.97;;;;;;;8.54;100.00;96534.75;5030721;28;105495;-66
2023/04/18 01:45:22;;;;;;;10.17;9.23;;;;;;;8.54;100.00;96532.09;5031452;28;102042;-66
2023/04/18 01:47:49;;;;;;;10.73;9.73;;;;;;;8.58;100.00;96533.25;5032863;27;102305;-66
2023/04/18 01:50:16;;;;;;;11.53;10.37;;;;;;;8.60;100.00;96533.81;5034232;28;104912;-66
2023/04/18 01:52:42;;;;;;;10.67;9.67;;;;;;;8.63;100.00;96524.59;5030026;28;103541;-66
2023/04/18 01:55:10;;;;;;;11.27;10.27;;;;;;;8.68;100.00;96530.00;5030659;28;105188;-66
2023/04/18 01:57:37;;;;;;;11.73;10.63;;;;;;;8.59;100.00;96518.13;5030334;28;101892;-66
2023/04/18 02:00:07;;;;;;;13.33;12.00;;;;;;;8.53;100.00;96516.44;5030313;28;104869;-66
2023/04/18 02:02:45;;;;;;;12.67;11.47;;;;;;;8.51;100.00;96523.81;5028216;27;102317;-66
2023/04/18 02:05:12;;;;;;;12.10;11.00;;;;;;;8.56;100.00;96527.38;5030006;28;101873;-66
2023/04/18 02:07:41;;;;;;;12.17;11.07;;;;;;;8.55;100.00;96519.63;5030190;28;105241;-66
2023/04/18 02:10:09;;;;;;;12.37;11.17;;;;;;;8.52;100.00;96523.59;5029705;28;105617;-66
2023/04/18 02:12:36;;;;;;;14.57;13.10;;;;;;;8.57;100.00;96525.53;5033515;28;102060;-66
2023/04/18 02:15:07;;;;;;;12.60;11.40;;;;;;;8.62;100.00;96528.28;5029570;28;105481;-67
2023/04/18 02:17:36;;;;;;;11.30;10.20;;;;;;;8.60;100.00;96531.16;5029817;28;102011;-67
2023/04/18 02:20:03;;;;;;;12.37;11.17;;;;;;;8.61;100.00;96532.78;5029835;28;104828;-66
2023/04/18 02:22:30;;;;;;;15.20;12.73;;;;;;;8.62;100.00;96531.72;5028938;28;105238;-66
2023/04/18 02:24:58;;;;;;;12.90;11.60;;;;;;;8.63;100.00;96535.19;5029644;28;101850;-66
2023/04/18 02:27:25;;;;;;;12.63;11.43;;;;;;;8.36;100.00;96526.16;5029967;28;105580;-66
2023/04/18 02:29:56;;;;;;;13.57;12.17;;;;;;;8.35;100.00;96538.56;5029321;28;104323;-66
2023/04/18 02:32:24;;;;;;;13.23;12.03;;;;;;;8.42;100.00;96541.94;5029772;28;101870;-66
2023/04/18 02:34:51;;;;;;;13.03;11.77;;;;;;;8.39;100.00;96537.06;5033157;27;103465;-67
2023/04/18 02:37:18;;;;;;;13.47;12.17;;;;;;;8.39;100.00;96531.00;5029647;28;101935;-67
2023/04/18 02:39:45;;;;;;;12.90;11.60;;;;;;;8.45;100.00;96536.16;5029784;28;104792;-66
2023/04/18 02:42:12;;;;;;;13.33;12.03;;;;;;;8.49;100.00;96544.44;5029045;28;105024;-66
2023/04/18 02:44:39;;;;;;;12.83;11.63;;;;;;;8.54;100.00;96540.06;5029560;28;101862;-66
2023/04/18 02:47:07;;;;;;;12.80;11.57;;;;;;;8.56;100.00;96550.44;5029317;28;103867;-66
2023/04/18 02:49:39;;;;;;;13.27;11.97;;;;;;;8.52;100.00;96536.84;5028970;28;105178;-66
2023/04/18 02:52:06;;;;;;;12.37;11.13;;;;;;;8.44;100.00;96546.97;5029445;28;101852;-66
2023/04/18 02:54:33;;;;;;;12.33;11.13;;;;;;;8.43;100.00;96548.84;5029395;28;105287;-66
2023/04/18 02:57:05;;;;;;;14.23;12.83;;;;;;;8.38;100.00;96539.94;5032279;28;105352;-66
2023/04/18 02:59:55;;;;;;;13.83;12.33;;;;;;;8.40;100.00;96538.69;5010204;27;102338;-66
2023/04/18 03:02:40;;;;;;;14.67;13.27;;;;;;;8.41;100.00;96540.28;5027004;28;102317;-66
2023/04/18 03:05:23;;;;;;;13.60;12.30;;;;;;;8.43;100.00;96538.22;5029141;28;101770;-67
2023/04/18 03:07:51;;;;;;;14.90;13.40;;;;;;;8.46;100.00;96543.06;5029246;28;104441;-67
2023/04/18 03:10:19;;;;;;;14.70;13.30;;;;;;;8.45;100.00;96543.31;5028738;28;105190;-67
2023/04/18 03:12:46;;;;;;;14.23;12.93;;;;;;;8.44;100.00;96539.84;5029106;28;101918;-67
2023/04/18 03:15:16;;;;;;;13.37;12.03;;;;;;;8.42;100.00;96544.56;5028815;28;103545;-66
2023/04/18 03:17:43;;;;;;;14.13;12.73;;;;;;;8.44;100.00;96529.25;5031912;28;105170;-67
2023/04/18 03:20:11;;;;;;;13.93;12.57;;;;;;;8.45;100.00;96535.34;5029042;28;104790;-67
2023/04/18 03:22:40;;;;;;;13.73;12.40;;;;;;;8.44;100.00;96533.72;5027962;28;105428;-67
2023/04/18 03:25:08;;;;;;;15.67;12.93;;;;;;;8.46;100.00;96526.38;5028824;28;102080;-67
2023/04/18 03:27:45;;;;;;;16.00;14.50;;;;;;;8.42;100.00;96531.31;5029221;28;105209;-67
2023/04/18 03:30:14;;;;;;;14.60;13.17;;;;;;;8.39;100.00;96531.00;5028492;28;105336;-67
2023/04/18 03:32:45;;;;;;;13.83;12.43;;;;;;;8.43;100.00;96529.47;5028641;28;102056;-66
2023/04/18 03:35:12;;;;;;;15.97;14.47;;;;;;;8.46;100.00;96537.75;5028592;28;105948;-66
2023/04/18 03:37:41;;;;;;;17.30;15.57;;;;;;;8.34;100.00;96534.31;5028029;28;104858;-66
2023/04/18 03:40:11;;;;;;;16.83;15.20;;;;;;;8.35;100.00;96535.13;5032098;28;101917;-66
2023/04/18 03:42:39;;;;;;;17.30;15.63;;;;;;;8.34;100.00;96533.53;5029465;28;102601;-66
2023/04/18 03:45:07;;;;;;;16.67;14.97;;;;;;;8.39;100.00;96531.00;5027444;28;101881;-66
2023/04/18 03:47:36;;;;;;;17.27;15.47;;;;;;;8.41;100.00;96531.56;5028310;28;104726;-66
2023/04/18 03:50:04;;;;;;;17.07;15.27;;;;;;;8.41;100.00;96531.56;5029425;28;103010;-67
2023/04/18 03:52:31;;;;;;;15.60;14.10;;;;;;;8.44;100.00;96531.06;5028419;28;102476;-66
2023/04/18 03:55:22;;;;;;;17.13;15.53;;;;;;;8.42;100.00;96528.69;5025636;27;102737;-66
2023/04/18 03:57:50;;;;;;;16.80;15.10;;;;;;;8.36;100.00;96531.44;5004002;28;104101;-66
2023/04/18 04:00:25;;;;;;;16.23;14.73;;;;;;;8.32;100.00;96535.59;4990976;28;101877;-67
2023/04/18 04:03:01;;;;;;;17.30;15.23;;;;;;;8.28;100.00;96535.25;4991451;28;105265;-66
2023/04/18 04:05:28;;;;;;;17.97;16.17;;;;;;;8.32;100.00;96536.41;4988271;28;102302;-66
2023/04/18 04:07:55;;;;;;;18.57;16.67;;;;;;;8.28;100.00;96539.75;4993779;28;105108;-66
2023/04/18 04:10:24;;;;;;;20.30;18.20;;;;;;;8.26;100.00;96539.16;5014022;28;105689;-65
2023/04/18 04:12:52;;;;;;;18.73;16.83;;;;;;;8.22;100.00;96540.66;5011385;28;102075;-66
2023/04/18 04:15:20;;;;;;;18.37;16.47;;;;;;;8.26;100.00;96541.81;5026329;28;104574;-66
2023/04/18 04:17:53;;;;;;;18.97;17.07;;;;;;;8.25;100.00;96540.22;4995103;28;106312;-67
2023/04/18 04:20:23;;;;;;;18.47;16.67;;;;;;;8.28;100.00;96545.06;5000450;28;101958;-66
2023/04/18 04:22:54;;;;;;;19.93;17.83;;;;;;;8.30;100.00;96542.97;5011413;28;104901;-66
2023/04/18 04:25:23;;;;;;;21.70;19.43;;;;;;;8.30;100.00;96543.75;5004415;28;105426;-66
2023/04/18 04:27:54;;;;;;;22.83;20.33;;;;;;;8.25;100.00;96535.72;5022258;28;104995;-66
2023/04/18 04:30:23;;;;;;;23.43;20.93;;;;;;;8.25;100.00;96545.50;5027428;28;104745;-66
2023/04/18 04:32:50;;;;;;;23.00;20.47;;;;;;;8.25;100.00;96548.97;5009656;28;102208;-66
2023/04/18 04:35:17;;;;;;;21.27;19.07;;;;;;;8.28;100.00;96553.00;5007559;28;105269;-65
2023/04/18 04:37:45;;;;;;;21.40;19.07;;;;;;;8.26;100.00;96547.13;5024450;28;105028;-66
2023/04/18 04:40:22;;;;;;;26.07;20.70;;;;;;;8.33;100.00;96553.09;5027955;28;102546;-66
2023/04/18 04:42:57;;;;;;;22.70;20.30;;;;;;;8.38;100.00;96555.84;5027874;28;105282;-66
2023/04/18 04:45:35;;;;;;;21.43;19.17;;;;;;;8.39;100.00;96558.28;5024605;28;105299;-66
2023/04/18 04:48:01;;;;;;;22.73;19.53;;;;;;;8.38;100.00;96550.56;5010831;28;102187;-66
2023/04/18 04:50:29;;;;;;;21.23;18.93;;;;;;;8.43;100.00;96551.47;5007082;28;105418;-67
2023/04/18 04:52:55;;;;;;;22.17;19.80;;;;;;;8.45;100.00;96552.03;5007559;28;102002;-67
2023/04/18 04:55:23;;;;;;;23.37;20.67;;;;;;;8.53;100.00;96550.88;5006953;28;105414;-66
2023/04/18 04:57:50;;;;;;;21.93;19.53;;;;;;;8.50;100.00;96559.31;4989112;28;105032;-65
2023/04/18 05:00:44;;;;;;;23.03;19.80;;;;;;;8.51;100.00;96555.63;4990692;28;102485;-66
2023/04/18 05:03:50;;;;;;;22.77;19.80;;;;;;;8.54;100.00;96553.31;4990945;28;105636;-67
2023/04/18 05:06:19;;;;;;;21.40;18.80;;;;;;;8.63;100.00;96553.75;4999130;28;102756;-67
2023/04/18 05:08:46;;;;;;;23.00;19.63;;;;;;;8.61;100.00;96561.13;5010851;28;102026;-67
2023/04/18 05:11:13;;;;;;;22.50;20.03;;;;;;;8.68;100.00;96561.81;5018509;28;104936;-67
2023/04/18 05:14:16;;;;;;;22.50;20.00;;;;;;;8.69;100.00;96566.06;5016042;28;101993;-67
2023/04/18 05:16:44;;;;;;;24.10;20.57;;;;;;;8.70;100.00;96565.03;5012107;28;103082;-67
2023/04/18 05:19:11;;;;;;;23.53;20.00;;;;;;;8.73;100.00;96559.25;5021329;28;105466;-67
2023/04/18 05:21:38;;;;;;;19.90;17.80;;;;;;;8.72;100.00;96563.75;5030633;28;101889;-67
2023/04/18 05:24:07;;;;;;;22.83;18.90;;;;;;;8.72;100.00;96562.97;5029821;28;105256;-65
2023/04/18 05:26:34;;;;;;;22.40;19.57;;;;;;;8.62;100.00;96573.34;5012859;27;102138;-65
2023/04/18 05:29:01;;;;;;;20.27;17.70;;;;;;;8.67;100.00;96566.28;4990202;28;102025;-66
2023/04/18 05:31:29;;;;;;;21.23;18.57;;;;;;;8.71;100.00;96564.78;4993382;28;105267;-67
2023/04/18 05:37:21;;;;;;;22.10;18.50;;;;;;;8.68;100.00;96564.47;5000238;28;103686;-65
2023/04/18 05:39:48;;;;;;;20.73;17.90;;;;;;;8.63;100.00;96569.66;5015537;28;105004;-64
2023/04/18 05:42:14;;;;;;;20.83;18.60;;;;;;;8.70;100.00;96565.03;5030571;28;101866;-64
2023/04/18 05:44:48;;;;;;;21.27;19.03;;;;;;;8.77;100.00;96571.03;5030206;28;105752;-64
2023/04/18 05:47:16;;;;;;;19.57;17.50;;;;;;;8.75;100.00;96567.78;5026241;28;105323;-65
2023/04/18 05:49:43;;;;;;;22.23;19.33;;;;;;;8.74;100.00;96567.00;5017086;28;103244;-65
2023/04/18 05:52:10;;;;;;;21.10;18.03;;;;;;;8.70;100.00;96565.03;5010313;28;105241;-64
2023/04/18 05:54:47;;;;;;;19.40;17.03;;;;;;;8.82;100.00;96573.75;5018222;28;104323;-64
2023/04/18 05:57:14;;;;;;;22.00;18.77;;;;;;;8.83;100.00;96576.16;5003034;28;105568;-64
2023/04/18 05:59:41;;;;;;;20.73;18.40;;;;;;;8.88;100.00;96573.63;4989350;28;107341;-64
2023/04/18 06:02:12;;;;;;;20.37;18.23;;;;;;;8.90;100.00;96576.03;4991474;28;101887;-64
2023/04/18 06:05:12;;;;;;;21.70;17.50;;;;;;;8.96;100.00;96580.41;5014647;28;105551;-64
2023/04/18 06:07:39;;;;;;;20.73;18.03;;;;;;;8.97;100.00;96582.84;4989129;28;105788;-64
2023/04/18 06:10:12;;;;;;;21.90;18.47;;;;;;;9.00;100.00;96581.56;4990863;28;102151;-64
2023/04/18 06:12:39;;;;;;;20.17;17.93;;;;;;;9.02;100.00;96580.28;4989854;28;105515;-64
2023/04/18 06:15:11;;;;;;;21.17;18.87;;;;;;;9.05;100.00;96579.00;4989237;28;105187;-64
2023/04/18 06:17:38;;;;;;;21.30;18.00;;;;;;;9.07;100.00;96588.34;5018710;28;101940;-64
2023/04/18 06:20:06;;;;;;;19.77;17.67;;;;;;;9.09;100.00;96596.03;5029343;28;105755;-64
2023/04/18 06:22:33;;;;;;;21.00;18.00;;;;;;;9.04;100.00;96591.44;5011301;28;102288;-64
2023/04/18 06:25:02;;;;;;;22.33;19.20;;;;;;;9.00;100.00;96576.25;5009895;28;105003;-64
2023/04/18 06:27:30;;;;;;;21.47;19.17;;;;;;;9.04;100.00;96598.59;5011784;28;105944;-64
2023/04/18 06:29:57;;;;;;;22.87;19.33;;;;;;;9.09;100.00;96598.69;5029759;28;101972;-64
2023/04/18 06:32:24;;;;;;;20.67;17.93;;;;;;;9.13;100.00;96600.66;5029634;28;105247;-64
2023/04/18 06:34:52;;;;;;;22.63;18.27;;;;;;;9.21;100.00;96600.28;5029242;28;103893;-64
2023/04/18 06:37:19;;;;;;;23.33;19.30;;;;;;;9.26;100.00;96610.19;5009964;28;102227;-66
2023/04/18 06:39:46;;;;;;;22.20;18.90;;;;;;;9.22;100.00;96604.53;5012181;28;104938;-67
2023/04/18 06:42:13;;;;;;;22.30;18.33;;;;;;;9.23;100.00;96600.03;5009329;28;102051;-67
2023/04/18 06:45:35;;;;;;;22.47;18.73;;;;;;;9.34;100.00;96602.66;5009379;28;105563;-66
2023/04/18 06:48:05;;;;;;;24.40;19.67;;;;;;;9.39;100.00;96599.28;5010173;28;102654;-65
2023/04/18 06:50:32;;;;;;;25.40;20.37;;;;;;;9.50;100.00;96595.78;5009160;28;101965;-66
2023/04/18 06:52:59;;;;;;;23.17;19.93;;;;;;;9.61;100.00;96592.25;5009401;28;103946;-66
2023/04/18 06:55:26;;;;;;;23.63;19.67;;;;;;;9.57;100.00;96591.94;5010600;28;103789;-66
2023/04/18 06:57:53;;;;;;;23.53;19.53;;;;;;;9.61;100.00;96592.25;5010001;28;102133;-67
2023/04/18 07:00:21;;;;;;;21.80;18.13;;;;;;;9.92;100.00;96592.53;5015735;28;105425;-68
2023/04/18 07:02:48;;;;;;;23.57;19.37;;;;;;;10.07;100.00;96595.47;5033106;27;103204;-68
2023/04/18 07:05:16;;;;;;;23.60;18.60;;;;;;;10.09;100.00;96588.03;5014440;27;102318;-67
2023/04/18 07:07:44;;;;;;;23.50;18.77;;;;;;;10.20;100.00;96589.03;5008306;28;105281;-68
2023/04/18 07:10:11;;;;;;;21.87;17.80;;;;;;;10.47;100.00;96595.28;5026880;28;103162;-70
2023/04/18 07:12:38;;;;;;;22.47;18.33;;;;;;;10.45;100.00;96586.72;5030505;27;102562;-66
2023/04/18 07:15:19;;;;;;;22.33;18.27;;;;;;;10.55;100.00;96592.19;5017808;28;105404;-68
2023/04/18 07:17:46;;;;;;;21.63;18.13;;;;;;;10.55;100.00;96586.88;4997564;28;102081;-67
2023/04/18 07:20:14;;;;;;;21.87;17.20;;;;;;;10.71;100.00;96584.19;4988966;28;105193;-66
2023/04/18 07:22:42;;;;;;;21.57;17.90;;;;;;;10.78;100.00;96592.78;4987707;28;105159;-67
2023/04/18 07:25:09;;;;;;;22.77;18.60;;;;;;;10.76;100.00;96583.44;4975523;28;101833;-68
2023/04/18 07:27:37;;;;;;;19.57;17.47;;;;;;;10.99;100.00;96584.00;5004160;28;104427;-66
2023/04/18 07:30:04;;;;;;;20.03;17.43;;;;;;;10.94;100.00;96583.13;5008612;28;101987;-68
2023/04/18 07:32:31;;;;;;;18.70;16.63;;;;;;;11.11;100.00;96581.19;5008363;28;105117;-68
2023/04/18 07:35:11;;;;;;;20.47;17.03;;;;;;;11.10;100.00;96584.91;5012928;28;105163;-65
2023/04/18 07:37:38;;;;;;;18.93;15.77;;;;;;;11.17;100.00;96585.56;5025731;28;101857;-68
2023/04/18 07:40:08;;;;;;;19.43;17.30;;;;;;;11.23;100.00;96592.53;5022682;28;105899;-65
2023/04/18 07:42:35;;;;;;;23.00;17.53;;;;;;;11.18;100.00;96584.50;5009201;28;103085;-74
2023/04/18 07:45:01;;;;;;;21.17;17.17;;;;;;;11.22;100.00;96589.06;5016740;28;102107;-69
2023/04/18 07:47:28;;;;;;;21.00;16.47;;;;;;;11.21;100.00;96587.47;4997124;28;102670;-69
2023/04/18 07:49:56;;;;;;;19.40;16.40;;;;;;;11.37;100.00;96593.75;4990256;28;101940;-69
2023/04/18 07:52:23;;;;;;;17.53;15.27;;;;;;;11.41;100.00;96594.88;5008100;28;103963;-68
2023/04/18 07:58:14;;;;;;;17.03;14.80;;;;;;;11.61;100.00;96597.78;5003152;28;102002;-67
2023/04/18 08:00:43;;;;;;;18.57;15.57;;;;;;;11.74;100.00;96594.69;5008009;28;104857;-67
2023/04/18 08:03:12;;;;;;;17.03;14.70;;;;;;;11.86;100.00;96593.47;5007694;28;105148;-68
2023/04/18 08:05:38;;;;;;;17.70;14.50;;;;;;;11.69;100.00;96591.97;5010207;28;102021;-68
2023/04/18 08:08:06;;;;;;;19.17;15.57;;;;;;;11.54;100.00;96595.28;5005029;28;105658;-68
2023/04/18 08:10:33;;;;;;;16.30;14.40;;;;;;;11.43;100.00;96590.91;5008637;28;103250;-67
2023/04/18 08:13:32;;;;;;;17.17;14.57;;;;;;;11.73;100.00;96599.19;5028137;28;104974;-67
2023/04/18 08:16:01;;;;;;;16.13;14.10;;;;;;;11.83;100.00;96590.53;5027586;28;105423;-67
2023/04/18 08:18:27;;;;;;;15.90;13.70;;;;;;;12.02;100.00;96594.41;4988837;28;102411;-68
2023/04/18 08:20:54;;;;;;;15.40;13.27;;;;;;;12.28;100.00;96594.38;4988126;28;105240;-67
2023/04/18 08:23:22;;;;;;;16.80;14.30;;;;;;;12.47;100.00;96592.06;4988570;28;102949;-66
2023/04/18 08:25:49;;;;;;;18.40;13.67;;;;;;;12.73;100.00;96594.66;4989505;28;101958;-67
2023/04/18 08:28:17;;;;;;;18.90;14.40;;;;;;;12.82;100.00;96589.63;5006547;28;103014;-68
2023/04/18 08:30:47;;;;;;;17.53;14.17;;;;;;;12.61;100.00;96591.41;5011197;28;105587;-68
2023/04/18 08:33:36;;;;;;;16.70;13.83;;;;;;;12.73;100.00;96591.19;5007745;28;105171;-67
2023/04/18 08:36:03;;;;;;;16.10;13.97;;;;;;;12.81;100.00;96594.16;5033126;27;105951;-71
2023/04/18 08:38:30;;;;;;;16.03;12.87;;;;;;;12.70;100.00;96599.72;4994094;28;102018;-66
2023/04/18 08:40:57;;;;;;;15.63;13.33;;;;;;;12.93;100.00;96599.28;5008527;28;105463;-68
2023/04/18 08:43:40;;;;;;;14.37;12.07;;;;;;;12.54;100.00;96598.00;5009269;28;105501;-69
2023/04/18 08:46:08;;;;;;;15.17;13.10;;;;;;;12.47;100.00;96600.06;5009595;27;101891;-68
2023/04/18 08:48:36;;;;;;;14.33;12.20;;;;;;;12.31;100.00;96598.41;4989040;28;102427;-67
2023/04/18 08:51:03;;;;;;;14.97;12.63;;;;;;;12.45;100.00;96605.69;4987109;28;105404;-67
2023/04/18 08:53:34;;;;;;;13.87;12.37;;;;;;;12.63;100.00;96607.94;4990751;28;102000;-68
2023/04/18 08:56:01;;;;;;;14.37;11.80;;;;;;;12.47;100.00;96598.22;5003433;28;105019;-68
2023/04/18 08:58:32;;;;;;;14.63;12.37;;;;;;;12.71;100.00;96607.44;4990075;28;101896;-66
2023/04/18 09:00:59;;;;;;;13.33;11.83;;;;;;;12.72;100.00;96608.25;4987496;28;105603;-67
2023/04/18 09:03:59;;;;;;;14.27;12.00;;;;;;;12.53;100.00;96607.88;4986948;28;105061;-68
2023/04/18 09:06:27;;;;;;;14.20;11.20;;;;;;;12.66;100.00;96611.97;4996979;28;102029;-68
2023/04/18 09:08:59;;;;;;;12.17;10.87;;;;;;;12.84;100.00;96607.00;4991503;28;104967;-67
2023/04/18 09:11:27;;;;;;;12.47;11.13;;;;;;;13.06;100.00;96614.88;4986749;28;105433;-68
2023/04/18 09:14:44;;;;;;;11.93;10.53;;;;;;;13.08;100.00;96610.88;4986994;28;102157;-68
2023/04/18 09:17:13;;;;;;;11.93;10.73;;;;;;;13.12;100.00;96616.50;4990305;28;104698;-68
2023/04/18 09:19:49;;;;;;;12.77;11.00;;;;;;;13.30;100.00;96614.16;4989691;28;101884;-68
2023/04/18 09:22:17;;;;;;;12.10;10.63;;;;;;;13.34;100.00;96609.09;5028054;27;103071;-68
2023/04/18 09:25:02;;;;;;;11.23;10.13;;;;;;;13.37;100.00;96613.94;5026856;28;104948;-66
2023/04/18 09:27:34;;;;;;;11.63;10.43;;;;;;;12.98;100.00;96626.06;5019026;27;101995;-67
2023/04/18 09:30:01;;;;;;;12.97;9.50;;;;;;;12.95;100.00;96621.19;5008606;28;102805;-66
2023/04/18 09:32:29;;;;;;;12.20;10.20;;;;;;;13.12;100.00;96616.50;4991138;28;105103;-66
2023/04/18 09:35:08;;;;;;;10.30;9.13;;;;;;;13.17;100.00;96611.19;5006966;28;101957;-66
2023/04/18 09:37:35;;;;;;;9.73;8.73;;;;;;;13.14;100.00;96619.72;5009276;28;102593;-67
2023/04/18 09:40:16;;;;;;;9.20;8.30;;;;;;;13.28;100.00;96615.50;5010021;28;102131;-67
2023/04/18 09:42:43;;;;;;;8.10;7.30;;;;;;;12.98;100.00;96620.72;5007884;28;104417;-70
2023/04/18 09:45:32;;;;;;;7.93;7.10;;;;;;;12.92;100.00;96617.16;5017115;28;104586;-67
2023/04/18 09:47:59;;;;;;;7.17;6.47;;;;;;;13.39;100.00;96617.94;5005345;28;101889;-67
2023/04/18 09:50:27;;;;;;;6.10;5.50;;;;;;;13.34;100.00;96619.78;4991289;28;105402;-67
2023/04/18 09:53:25;;;;;;;6.27;5.73;;;;;;;13.21;100.00;96620.28;4991781;28;102206;-66
2023/04/18 09:55:53;;;;;;;6.00;5.50;;;;;;;13.88;100.00;96615.66;4991109;28;101758;-68
2023/04/18 09:58:22;;;;;;;5.70;5.20;;;;;;;14.29;100.00;96612.78;4991092;28;105433;-68
2023/04/18 10:00:51;;;;;;;6.30;5.70;;;;;;;13.96;100.00;96612.47;4996449;28;102683;-68
2023/04/18 10:03:25;;;;;;;6.17;5.53;;;;;;;13.73;100.00;96612.97;5012193;28;103989;-68
2023/04/18 10:05:55;;;;;;;6.07;5.57;;;;;;;13.59;100.00;96611.88;5011783;28;103119;-67
2023/04/18 10:08:22;;;;;;;6.00;5.40;;;;;;;13.62;100.00;96612.13;4996993;28;102277;-68
2023/04/18 10:10:49;;;;;;;5.80;5.30;;;;;;;13.90;100.00;96608.97;4992402;28;102309;-68
2023/04/18 10:13:28;;;;;;;5.70;5.20;;;;;;;13.46;100.00;96615.03;4990031;28;105231;-69
2023/04/18 10:15:56;;;;;;;5.83;5.30;;;;;;;13.36;100.00;96607.00;4992266;28;101692;-68
2023/04/18 10:18:24;;;;;;;5.90;5.30;;;;;;;13.22;100.00;96614.69;5005695;28;103538;-68
2023/04/18 10:21:00;;;;;;;5.63;5.13;;;;;;;13.27;100.00;96609.38;5010128;28;105047;-68
2023/04/18 10:24:02;;;;;;;5.77;5.23;;;;;;;13.79;100.00;96606.56;5023527;28;101957;-68
2023/04/18 10:26:48;;;;;;;5.10;4.70;;;;;;;13.68;100.00;96607.63;5030176;28;105042;-64
2023/04/18 10:29:17;;;;;;;5.50;4.97;;;;;;;13.88;100.00;96608.44;5010577;28;101819;-64
2023/04/18 10:31:46;;;;;;;5.10;4.70;;;;;;;14.29;100.00;96612.00;5010622;28;104231;-65
2023/04/18 10:34:54;;;;;;;5.23;4.73;;;;;;;13.95;100.00;96606.31;5009774;28;103784;-65
2023/04/18 10:37:20;;;;;;;4.97;4.40;;;;;;;14.09;100.00;96611.94;5006583;28;102077;-65
2023/04/18 10:39:51;;;;;;;5.00;4.60;;;;;;;14.33;100.00;96613.06;5028570;28;102323;-64
2023/04/18 10:42:18;;;;;;;4.60;4.20;;;;;;;14.37;100.00;96600.72;5030055;27;103340;-64
2023/04/18 10:45:18;;;;;;;4.57;4.17;;;;;;;14.45;100.00;96605.56;5012719;27;101991;-64
2023/04/18 10:47:45;;;;;;;11.17;5.53;;;;;;;14.43;100.00;96603.16;5003673;28;102338;-64
2023/04/18 10:50:12;;;;;;;5.43;4.73;;;;;;;14.20;100.00;96605.56;5011693;28;101977;-64
2023/04/18 10:52:40;;;;;;;5.47;4.57;;;;;;;14.25;100.00;96606.38;5011708;28;105188;-64
2023/04/18 10:55:28;;;;;;;4.87;4.20;;;;;;;14.65;100.00;96602.84;5017910;28;105187;-64
2023/04/18 10:57:57;;;;;;;5.67;4.60;;;;;;;14.88;100.00;96607.63;5009665;28;101840;-66
2023/04/18 11:00:25;;;;;;;4.93;4.37;;;;;;;14.66;100.00;96596.44;5012902;28;102491;-66
2023/04/18 11:03:02;;;;;;;4.87;4.43;;;;;;;14.65;100.00;96600.97;5011101;28;102520;-67
2023/04/18 11:05:29;;;;;;;5.30;4.80;;;;;;;14.44;100.00;96598.63;5010383;28;101970;-67
2023/04/18 11:07:56;;;;;;;4.57;4.17;;;;;;;14.65;100.00;96594.81;5008044;28;104868;-66
2023/04/18 11:10:25;;;;;;;6.13;5.23;;;;;;;14.60;100.00;96598.31;5033416;28;105404;-67
2023/04/18 11:13:16;;;;;;;5.70;5.20;;;;;;;14.28;100.00;96595.13;5025462;28;104795;-66
2023/04/18 11:15:43;;;;;;;6.93;5.67;;;;;;;13.97;100.00;96603.38;5009623;28;105447;-66
2023/04/18 11:18:09;;;;;;;6.03;5.37;;;;;;;14.00;100.00;96592.94;5006257;28;102127;-66
2023/04/18 11:20:38;;;;;;;6.10;5.50;;;;;;;14.15;100.00;96594.81;5001721;28;105647;-67
2023/04/18 11:23:16;;;;;;;5.73;5.23;;;;;;;14.46;100.00;96597.28;5028852;28;105056;-67
2023/04/18 11:25:44;;;;;;;6.57;5.87;;;;;;;14.43;100.00;96596.97;5028540;28;102421;-65
2023/04/18 11:28:12;;;;;;;8.20;5.93;;;;;;;14.16;100.00;96597.25;5008036;28;104772;-66
2023/04/18 11:30:40;;;;;;;6.73;5.70;;;;;;;14.39;100.00;96603.97;4995523;28;105626;-65
2023/04/18 11:33:28;;;;;;;6.57;5.97;;;;;;;14.24;100.00;96601.28;5014278;28;102219;-65